Hovedside
METAR-TAF:

METAR-TAF

Lufthavner :

Yap, Mikronesia

breddegrad: 09-29N, lengdegrad: 138-05E, høyde over havet: 28 m

Gjeldene værobservasjon

Denne rapporten ble laget for 1 time og 12 minutter siden, klokken 15:50 UTC
Vind 10 kt fra Øst
Temperatur 28°C
Luftfuktighet 74%
Trykk 1013 hPa
Sikt: 19.3 km
Få skyer i en høyde av 1600 ft
Brutte skyer i en høyde av 13000 ft
Brutte skyer i en høyde av 30000 ft

METAR: PTYA 231550Z 08010KT 12SM FEW016 BKN130 BKN300 28/23 A2991 RMK SLP130 T02800230

Tid: 03:02 (17:02 UTC)

Varsel

Denne rapporten ble laget for 5 timer og 41 minutter siden, klokken 11:21 UTC
Varsel gyldig fra 23. klokken 12 UTC til 24. klokken 12 UTC
Vind 12 kt fra Øst
Sikt: 10 km
Spredte skyer i en høyde av 1600 ft
Brutte skyer i en høyde av 13000 ft
regnbyger i nærheten

TAF: PTYA 231121Z 2312/2412 08012KT P6SM VCSH SCT016 BKN130

Værobservasjoner og værvarsel for over 4000 flyplasser (METAR- og TAF-rapporter).

Tilgjengelige stasjoner er representert av de røde og gule prikkene på kartet.

Hold musepekeren over prikken for å se navnet på stasjonen.

Klikk så for å se værobservasjoner og -varsler.

For å forandre kartet kan du klikke på den grønne knappen med svart kryss for å zoome inn, på den grønne knappen med strek for å zoome ut, eller på de grønne pilene for å se tilstøtende kart.


METAR-TAF: